Time;durP1;ratioP1;P1;durP2;ratioP2;P2;SDS_P1;SDS_P2;PMS_P1;PMS_P2;Temp;Humidity;BMP_temperature;BMP_pressure;BME280_temperature;BME280_humidity;BME280_pressure;Samples;Min_cycle;Max_cycle;Signal;HPM_P1;HPM_P2
2023/06/04 00:00:00;;;;;;;6.77;3.77;;;9.80;1.00;;;;;;5015334;28;20216;-56
2023/06/04 00:02:26;;;;;;;5.07;3.50;;;9.70;1.00;;;;;;5015681;28;20192;-56
2023/06/04 00:04:51;;;;;;;5.87;3.93;;;9.70;1.00;;;;;;5015993;28;20262;-57
2023/06/04 00:07:17;;;;;;;6.07;3.90;;;9.70;1.00;;;;;;5015515;28;20191;-57
2023/06/04 00:09:43;;;;;;;11.67;4.27;;;9.70;1.00;;;;;;5015549;28;20215;-56
2023/06/04 00:12:09;;;;;;;6.10;3.40;;;9.70;1.00;;;;;;5015449;28;20184;-56
2023/06/04 00:14:35;;;;;;;6.03;3.30;;;9.70;1.00;;;;;;5015421;28;20989;-56
2023/06/04 00:17:00;;;;;;;13.27;3.73;;;9.60;1.00;;;;;;5015538;28;20183;-56
2023/06/04 00:19:26;;;;;;;6.00;3.63;;;9.60;1.00;;;;;;5015135;28;20181;-55
2023/06/04 00:21:52;;;;;;;5.70;3.13;;;9.70;1.00;;;;;;5015104;28;20269;-56
2023/06/04 00:24:17;;;;;;;8.70;3.83;;;9.70;1.00;;;;;;5015060;28;20180;-56
2023/06/04 00:26:43;;;;;;;6.33;3.93;;;9.60;1.00;;;;;;5015227;28;20188;-56
2023/06/04 00:29:09;;;;;;;6.07;3.97;;;9.60;1.00;;;;;;5015017;28;20188;-57
2023/06/04 00:31:35;;;;;;;6.10;4.10;;;9.60;1.00;;;;;;5015142;28;20415;-56
2023/06/04 00:34:03;;;;;;;6.73;3.80;;;9.50;1.00;;;;;;5014885;28;20551;-56
2023/06/04 00:36:29;;;;;;;8.87;4.00;;;9.50;1.00;;;;;;5014941;28;20414;-56
2023/06/04 00:38:54;;;;;;;6.10;3.30;;;9.50;1.00;;;;;;5015082;28;20786;-56
2023/06/04 00:41:20;;;;;;;7.57;4.10;;;9.40;1.00;;;;;;5014902;28;20184;-56
2023/06/04 00:43:54;;;;;;;7.23;3.63;;;9.40;1.00;;;;;;5014924;28;20275;-56
2023/06/04 00:46:21;;;;;;;10.23;3.50;;;9.30;1.00;;;;;;5014927;28;20262;-56
2023/06/04 00:48:46;;;;;;;5.20;3.40;;;9.20;1.00;;;;;;5014730;28;20435;-57
2023/06/04 00:51:12;;;;;;;7.00;3.73;;;9.20;1.00;;;;;;5013874;28;20926;-59
2023/06/04 00:53:38;;;;;;;6.53;3.50;;;9.20;1.00;;;;;;5014812;28;20172;-57
2023/06/04 00:56:05;;;;;;;4.47;3.47;;;9.10;1.00;;;;;;5014471;28;20473;-57
2023/06/04 00:58:31;;;;;;;6.07;3.33;;;9.00;1.00;;;;;;5014675;28;20625;-58
2023/06/04 01:01:03;;;;;;;7.10;3.67;;;9.00;1.00;;;;;;5014855;28;20412;-59
2023/06/04 01:03:32;;;;;;;6.77;4.00;;;8.90;1.00;;;;;;5015878;28;20462;-57
2023/06/04 01:06:10;;;;;;;5.13;3.40;;;8.90;1.00;;;;;;5015840;28;20415;-57
2023/06/04 01:08:36;;;;;;;4.00;3.30;;;8.80;1.00;;;;;;5015178;28;20469;-57
2023/06/04 01:11:02;;;;;;;4.23;3.60;;;8.80;1.00;;;;;;5014139;28;20514;-57
2023/06/04 01:13:27;;;;;;;4.60;3.10;;;8.80;1.00;;;;;;5014091;28;20459;-57
2023/06/04 01:15:53;;;;;;;7.20;3.43;;;8.80;1.00;;;;;;5014782;28;20188;-57
2023/06/04 01:18:29;;;;;;;5.07;3.33;;;8.80;1.00;;;;;;5014058;28;20659;-56
2023/06/04 01:21:12;;;;;;;5.13;3.33;;;8.70;1.00;;;;;;5014641;28;20182;-56
2023/06/04 01:23:47;;;;;;;6.73;3.43;;;8.70;1.00;;;;;;5014129;28;20466;-56
2023/06/04 01:26:13;;;;;;;3.97;3.17;;;8.70;1.00;;;;;;5014308;28;20430;-56
2023/06/04 01:28:39;;;;;;;3.77;3.20;;;8.60;1.00;;;;;;5014176;28;20415;-57
2023/06/04 01:31:08;;;;;;;4.13;3.30;;;8.60;1.00;;;;;;5014035;28;20426;-56
2023/06/04 01:33:34;;;;;;;5.53;3.43;;;8.50;1.00;;;;;;5014015;28;20423;-56
2023/06/04 01:36:01;;;;;;;3.60;3.23;;;8.50;1.00;;;;;;5013966;28;20415;-57
2023/06/04 01:38:27;;;;;;;5.43;3.50;;;8.50;1.00;;;;;;5012716;28;20867;-57
2023/06/04 01:40:56;;;;;;;4.83;3.50;;;8.50;1.00;;;;;;5014136;28;20774;-57
2023/06/04 01:43:22;;;;;;;4.80;3.23;;;8.40;1.00;;;;;;5013740;28;20458;-57
2023/06/04 01:45:48;;;;;;;7.50;3.27;;;8.40;1.00;;;;;;5013629;28;20431;-58
2023/06/04 01:48:13;;;;;;;4.60;3.43;;;8.30;1.00;;;;;;5013386;28;20424;-56
2023/06/04 01:50:39;;;;;;;5.57;3.43;;;8.30;1.00;;;;;;5013730;28;20407;-58
2023/06/04 01:53:06;;;;;;;4.20;3.60;;;8.30;1.00;;;;;;5013093;28;20240;-57
2023/06/04 01:55:33;;;;;;;5.50;3.40;;;8.30;1.00;;;;;;5013598;28;20191;-57
2023/06/04 01:58:00;;;;;;;5.20;3.30;;;8.20;1.00;;;;;;5013590;28;20445;-57
2023/06/04 02:00:26;;;;;;;3.30;3.00;;;8.20;1.00;;;;;;5014081;28;20765;-58
2023/06/04 02:02:52;;;;;;;6.57;3.80;;;8.20;2.70;;;;;;5012919;28;20474;-58
2023/06/04 02:05:18;;;;;;;7.60;3.40;;;8.10;8.90;;;;;;5013459;28;20442;-58
2023/06/04 02:07:45;;;;;;;5.83;3.43;;;8.10;23.60;;;;;;5013477;28;20899;-58
2023/06/04 02:10:16;;;;;;;7.70;3.60;;;8.10;39.50;;;;;;5013430;28;20188;-57
2023/06/04 02:12:58;;;;;;;5.57;3.13;;;8.00;47.00;;;;;;5013431;28;20427;-58
2023/06/04 02:15:25;;;;;;;4.23;3.40;;;8.00;48.40;;;;;;5013461;28;20415;-58
2023/06/04 02:17:55;;;;;;;5.73;3.97;;;8.00;54.20;;;;;;5013246;28;20414;-57
2023/06/04 02:20:20;;;;;;;6.73;3.30;;;7.90;83.70;;;;;;5013295;28;20423;-58
2023/06/04 02:22:47;;;;;;;10.47;4.53;;;7.90;97.60;;;;;;5012759;28;20469;-57
2023/06/04 02:25:13;;;;;;;8.30;4.43;;;7.80;99.90;;;;;;5013039;28;20208;-57
2023/06/04 02:27:38;;;;;;;6.83;4.43;;;7.80;99.90;;;;;;5013124;28;20907;-57
2023/06/04 02:30:05;;;;;;;5.70;3.80;;;7.80;99.90;;;;;;5013296;28;20184;-56
2023/06/04 02:32:33;;;;;;;7.07;4.50;;;7.80;99.90;;;;;;5013186;28;20262;-56
2023/06/04 02:34:59;;;;;;;5.37;3.53;;;7.80;99.90;;;;;;5013099;28;20941;-57
2023/06/04 02:37:25;;;;;;;5.47;4.07;;;7.80;99.90;;;;;;5013078;28;20415;-57
2023/06/04 02:39:50;;;;;;;6.17;3.80;;;7.90;99.90;;;;;;5013061;28;20180;-57
2023/06/04 02:42:16;;;;;;;8.03;4.03;;;8.00;99.90;;;;;;5012792;28;20342;-56
2023/06/04 02:44:41;;;;;;;6.07;3.70;;;8.10;99.90;;;;;;5012711;28;20231;-57
2023/06/04 02:47:07;;;;;;;5.40;3.53;;;8.10;99.90;;;;;;5012972;28;20274;-56
2023/06/04 02:49:33;;;;;;;4.80;3.37;;;8.20;99.90;;;;;;5013049;28;20184;-56
2023/06/04 02:51:58;;;;;;;9.90;3.83;;;8.20;99.90;;;;;;5012640;28;20289;-53
2023/06/04 02:54:24;;;;;;;6.47;4.00;;;8.20;99.90;;;;;;5013100;28;20179;-56
2023/06/04 02:56:51;;;;;;;6.83;3.20;;;8.20;99.90;;;;;;5012609;28;20710;-56
2023/06/04 02:59:16;;;;;;;6.50;4.03;;;8.20;99.90;;;;;;5012864;28;20567;-57
2023/06/04 03:01:43;;;;;;;7.67;3.87;;;8.20;99.90;;;;;;5012464;28;20419;-57
2023/06/04 03:04:09;;;;;;;7.07;4.03;;;8.20;99.90;;;;;;5012498;28;20271;-57
2023/06/04 03:06:38;;;;;;;6.23;3.77;;;8.10;99.90;;;;;;5012579;28;20419;-57
2023/06/04 03:09:04;;;;;;;5.50;3.70;;;8.10;99.90;;;;;;5012801;28;20765;-57
2023/06/04 03:11:29;;;;;;;4.60;3.97;;;8.10;99.90;;;;;;5013344;28;20430;-56
2023/06/04 03:13:55;;;;;;;6.43;3.80;;;8.10;99.90;;;;;;5014603;28;20415;-57
2023/06/04 03:16:21;;;;;;;7.83;3.90;;;8.10;99.90;;;;;;5016724;28;20187;-57
2023/06/04 03:18:47;;;;;;;6.93;4.10;;;8.10;99.90;;;;;;5016576;28;20179;-57
2023/06/04 03:21:13;;;;;;;4.77;3.40;;;8.10;99.90;;;;;;5016452;28;20930;-57
2023/06/04 03:23:39;;;;;;;6.30;3.30;;;8.10;99.90;;;;;;5016472;28;20322;-57
2023/06/04 03:26:05;;;;;;;5.20;3.90;;;8.00;99.90;;;;;;5016263;28;20422;-56
2023/06/04 03:28:33;;;;;;;7.17;3.40;;;8.10;99.90;;;;;;5015980;28;20419;-57
2023/06/04 03:30:58;;;;;;;8.90;3.10;;;8.10;99.90;;;;;;5015462;28;20423;-57
2023/06/04 03:33:24;;;;;;;7.33;3.33;;;8.10;99.90;;;;;;5016604;28;20425;-57
2023/06/04 03:35:52;;;;;;;7.63;3.30;;;8.10;99.90;;;;;;5015991;28;20938;-57
2023/06/04 03:38:18;;;;;;;7.47;3.20;;;8.10;99.90;;;;;;5016117;28;20422;-57
2023/06/04 03:40:43;;;;;;;7.33;3.63;;;8.10;99.90;;;;;;5016126;28;20526;-57
2023/06/04 03:43:09;;;;;;;5.60;3.63;;;8.20;99.90;;;;;;5016037;28;20306;-57
2023/06/04 03:45:35;;;;;;;4.20;3.50;;;8.20;99.90;;;;;;5016126;28;20181;-57
2023/06/04 03:48:01;;;;;;;8.50;3.97;;;8.20;99.90;;;;;;5015766;28;20481;-56
2023/06/04 03:50:26;;;;;;;6.63;3.77;;;8.30;99.90;;;;;;5016227;28;20208;-57
2023/06/04 03:52:52;;;;;;;7.23;4.07;;;8.30;99.90;;;;;;5015633;28;20645;-57
2023/06/04 03:55:18;;;;;;;12.70;3.83;;;8.30;99.90;;;;;;5015481;28;20183;-57
2023/06/04 03:57:44;;;;;;;4.17;3.03;;;8.40;99.90;;;;;;5015674;28;20192;-57
2023/06/04 04:00:12;;;;;;;5.97;3.70;;;8.40;99.90;;;;;;5015837;28;20426;-58
2023/06/04 04:02:41;;;;;;;5.37;3.37;;;8.50;99.90;;;;;;5015522;28;20942;-57
2023/06/04 04:05:07;;;;;;;5.60;3.50;;;8.50;99.90;;;;;;5015584;28;20423;-57
2023/06/04 04:07:33;;;;;;;8.43;4.10;;;8.60;99.90;;;;;;5015405;28;20430;-57
2023/06/04 04:09:58;;;;;;;8.70;3.90;;;8.70;99.90;;;;;;5015906;28;20494;-57
2023/06/04 04:12:24;;;;;;;5.33;3.30;;;8.70;99.90;;;;;;5015680;28;20648;-57
2023/06/04 04:14:49;;;;;;;10.03;3.77;;;8.80;99.90;;;;;;5015248;28;20657;-57
2023/06/04 04:17:15;;;;;;;5.20;3.30;;;8.80;99.90;;;;;;5015515;28;20191;-57
2023/06/04 04:19:41;;;;;;;6.20;3.40;;;8.90;99.90;;;;;;5015213;28;20233;-59
2023/06/04 04:22:08;;;;;;;10.50;4.50;;;9.00;99.90;;;;;;5015111;28;20253;-56
2023/06/04 04:24:36;;;;;;;6.90;4.13;;;9.00;99.90;;;;;;5014776;28;20191;-57
2023/06/04 04:27:03;;;;;;;5.23;3.50;;;9.10;99.90;;;;;;5015008;28;20782;-57
2023/06/04 04:29:32;;;;;;;7.50;3.80;;;9.20;99.90;;;;;;5015208;28;20953;-57
2023/06/04 04:32:01;;;;;;;6.47;3.60;;;9.30;99.90;;;;;;5015433;28;20984;-57
2023/06/04 04:34:27;;;;;;;4.10;3.40;;;9.40;99.90;;;;;;5015116;28;20447;-58
2023/06/04 04:36:53;;;;;;;5.77;4.10;;;9.50;74.60;;;;;;5015095;28;20922;-57
2023/06/04 04:39:26;;;;;;;6.77;3.47;;;9.70;56.10;;;;;;5014909;28;20434;-57
2023/06/04 04:41:52;;;;;;;8.00;3.53;;;9.80;34.10;;;;;;5014955;28;20459;-57
2023/06/04 04:44:18;;;;;;;7.60;3.40;;;9.90;22.50;;;;;;5014933;28;20510;-57
2023/06/04 04:46:43;;;;;;;9.30;3.80;;;10.10;6.70;;;;;;5014951;28;20180;-58
2023/06/04 04:49:09;;;;;;;7.93;3.87;;;10.20;1.00;;;;;;5014880;28;20181;-56
2023/06/04 04:51:36;;;;;;;7.13;3.80;;;10.30;1.00;;;;;;5014188;28;20696;-57
2023/06/04 04:54:02;;;;;;;7.63;4.27;;;10.40;1.00;;;;;;5014618;28;20207;-56
2023/06/04 04:56:28;;;;;;;9.53;4.83;;;10.60;1.00;;;;;;5014878;28;20423;-58
2023/06/04 04:58:55;;;;;;;13.73;4.40;;;10.70;1.00;;;;;;5014497;28;20218;-57
2023/06/04 05:01:21;;;;;;;7.10;4.63;;;10.80;1.00;;;;;;5014792;28;20503;-57
2023/06/04 05:03:48;;;;;;;10.17;4.67;;;11.00;1.00;;;;;;5014602;28;20458;-57
2023/06/04 05:06:13;;;;;;;10.90;4.60;;;11.10;1.00;;;;;;5014666;28;20470;-58
2023/06/04 05:08:39;;;;;;;15.87;5.67;;;11.30;1.00;;;;;;5014329;28;20471;-57
2023/06/04 05:11:05;;;;;;;8.00;4.30;;;11.40;1.00;;;;;;5013486;28;20184;-57
2023/06/04 05:13:30;;;;;;;15.97;4.80;;;11.60;1.00;;;;;;5014432;28;20180;-58
2023/06/04 05:15:56;;;;;;;8.90;4.60;;;11.70;1.00;;;;;;5014452;28;20215;-58
2023/06/04 05:18:28;;;;;;;16.47;4.50;;;11.80;1.00;;;;;;5014399;28;20266;-58
2023/06/04 05:20:59;;;;;;;12.83;4.90;;;12.00;1.00;;;;;;5014530;28;20415;-58
2023/06/04 05:23:26;;;;;;;12.67;4.80;;;12.20;1.00;;;;;;5014119;28;20457;-58
2023/06/04 05:25:51;;;;;;;7.93;4.17;;;12.20;1.00;;;;;;5014199;28;20442;-57
2023/06/04 05:28:18;;;;;;;10.93;4.57;;;12.30;1.00;;;;;;5014220;28;20419;-58
2023/06/04 05:30:43;;;;;;;7.53;4.87;;;12.50;1.00;;;;;;5014284;28;20427;-61
2023/06/04 05:33:17;;;;;;;13.57;4.63;;;12.60;1.00;;;;;;5013904;28;20471;-57
2023/06/04 05:35:48;;;;;;;9.60;3.97;;;12.70;1.00;;;;;;5013667;28;20259;-57
2023/06/04 05:38:18;;;;;;;8.97;4.47;;;12.90;1.00;;;;;;5013822;28;20419;-58
2023/06/04 05:40:47;;;;;;;8.17;4.17;;;13.10;1.00;;;;;;5013980;28;20411;-58
2023/06/04 05:43:13;;;;;;;7.73;3.93;;;13.30;1.00;;;;;;5013570;28;20549;-59
2023/06/04 05:45:39;;;;;;;9.43;3.73;;;13.40;1.00;;;;;;5013526;28;20977;-57
2023/06/04 05:48:05;;;;;;;5.80;3.70;;;13.60;1.00;;;;;;5013667;28;20478;-58
2023/06/04 05:50:31;;;;;;;11.07;3.67;;;13.80;1.00;;;;;;5013384;28;20427;-59
2023/06/04 05:52:57;;;;;;;5.60;3.60;;;14.00;1.00;;;;;;5013415;28;20290;-59
2023/06/04 05:55:23;;;;;;;6.77;4.00;;;14.30;1.00;;;;;;5013429;28;20527;-58
2023/06/04 05:57:51;;;;;;;6.03;3.73;;;14.60;1.00;;;;;;5013244;28;20188;-58
2023/06/04 06:00:17;;;;;;;9.30;3.80;;;14.60;1.00;;;;;;5013256;28;20206;-60
2023/06/04 06:02:43;;;;;;;12.23;3.90;;;14.70;1.00;;;;;;5013417;28;20467;-60
2023/06/04 06:05:09;;;;;;;11.43;3.43;;;14.90;1.00;;;;;;5013280;28;20430;-59
2023/06/04 06:07:35;;;;;;;16.70;4.00;;;15.10;1.00;;;;;;5013304;28;20181;-60
2023/06/04 06:10:01;;;;;;;9.47;3.87;;;15.20;1.00;;;;;;5013560;28;20186;-60
2023/06/04 06:12:26;;;;;;;13.97;4.20;;;15.40;1.00;;;;;;5013314;28;20423;-60
2023/06/04 06:14:52;;;;;;;6.37;3.57;;;15.60;1.00;;;;;;5013205;28;20950;-61
2023/06/04 06:17:17;;;;;;;8.47;3.73;;;15.70;1.00;;;;;;5013207;28;20234;-58
2023/06/04 06:19:43;;;;;;;6.83;3.40;;;15.90;1.00;;;;;;5028240;28;20207;-59
2023/06/04 06:22:08;;;;;;;10.07;3.43;;;16.10;1.00;;;;;;5012697;28;20687;-60
2023/06/04 06:24:34;;;;;;;7.30;3.33;;;16.30;1.00;;;;;;5013046;28;20186;-58
2023/06/04 06:27:00;;;;;;;7.50;3.70;;;16.60;1.00;;;;;;5013211;28;20643;-59
2023/06/04 06:29:25;;;;;;;20.40;3.83;;;16.80;1.00;;;;;;5013015;28;20273;-59
2023/06/04 06:31:51;;;;;;;7.70;3.23;;;17.00;1.00;;;;;;5012658;28;20297;-59
2023/06/04 06:34:17;;;;;;;9.83;3.00;;;17.30;1.00;;;;;;5012845;28;20198;-59
2023/06/04 06:36:42;;;;;;;9.73;3.20;;;17.30;1.00;;;;;;5012467;28;20586;-60
2023/06/04 06:39:08;;;;;;;8.80;3.03;;;17.50;1.00;;;;;;5012798;28;20194;-59
2023/06/04 06:41:34;;;;;;;5.40;2.70;;;17.70;1.00;;;;;;5012624;28;20186;-59
2023/06/04 06:44:00;;;;;;;9.03;3.30;;;17.70;1.00;;;;;;5013183;28;20503;-59
2023/06/04 06:46:26;;;;;;;9.87;3.37;;;17.80;1.00;;;;;;5013088;28;20445;-59
2023/06/04 06:48:51;;;;;;;6.63;3.00;;;17.80;1.00;;;;;;5012935;28;20259;-60
2023/06/04 06:51:17;;;;;;;6.70;3.23;;;18.10;1.00;;;;;;5012847;28;20181;-59
2023/06/04 06:53:43;;;;;;;6.03;2.93;;;18.20;1.00;;;;;;5012725;28;20175;-60
2023/06/04 06:56:09;;;;;;;8.00;3.30;;;18.30;1.00;;;;;;5012418;28;20627;-58
2023/06/04 06:58:34;;;;;;;6.73;2.77;;;18.50;1.00;;;;;;5012740;28;20429;-59
2023/06/04 07:01:00;;;;;;;5.60;2.50;;;18.80;1.00;;;;;;5013216;28;20546;-58
2023/06/04 07:03:26;;;;;;;7.37;2.63;;;18.80;1.00;;;;;;5012717;28;20318;-59
2023/06/04 07:05:52;;;;;;;7.93;2.43;;;19.00;1.00;;;;;;5012516;28;20509;-59
2023/06/04 07:08:17;;;;;;;6.57;2.57;;;19.00;1.00;;;;;;5012732;28;20186;-59
2023/06/04 07:10:43;;;;;;;7.37;3.00;;;19.20;1.00;;;;;;5012770;28;20623;-59
2023/06/04 07:13:09;;;;;;;4.17;2.13;;;19.20;1.00;;;;;;5012082;28;20191;-59
2023/06/04 07:15:34;;;;;;;8.00;2.57;;;19.30;99.90;;;;;;5012375;28;20210;-58
2023/06/04 07:18:00;;;;;;;6.33;2.20;;;19.30;99.90;;;;;;5013024;28;20220;-59
2023/06/04 07:20:26;;;;;;;4.87;2.40;;;19.30;99.90;;;;;;5012353;28;20609;-59
2023/06/04 07:22:51;;;;;;;5.43;2.30;;;19.50;99.90;;;;;;5012186;28;20215;-60
2023/06/04 07:25:17;;;;;;;6.07;2.70;;;19.60;99.90;;;;;;5012312;28;20679;-60
2023/06/04 07:27:42;;;;;;;7.57;2.40;;;19.70;99.90;;;;;;5012009;28;20183;-59
2023/06/04 07:30:09;;;;;;;4.77;2.60;;;20.10;99.90;;;;;;5012355;28;20233;-59
2023/06/04 07:32:34;;;;;;;9.20;2.77;;;20.20;99.90;;;;;;5011903;28;20241;-58
2023/06/04 07:35:01;;;;;;;7.10;2.00;;;20.30;99.90;;;;;;5012342;28;20484;-60
2023/06/04 07:37:26;;;;;;;7.20;2.43;;;20.40;99.90;;;;;;5012074;28;20195;-59
2023/06/04 07:39:52;;;;;;;3.77;2.13;;;20.40;99.90;;;;;;5012153;28;20505;-59
2023/06/04 07:42:18;;;;;;;5.73;2.53;;;20.50;99.90;;;;;;5012465;28;20651;-59
2023/06/04 07:44:43;;;;;;;3.97;2.33;;;20.50;99.90;;;;;;5011927;28;20179;-59
2023/06/04 07:47:09;;;;;;;5.33;2.20;;;20.60;99.90;;;;;;5011594;28;20289;-58
2023/06/04 07:49:35;;;;;;;5.00;2.50;;;20.70;99.90;;;;;;5012041;28;20261;-55
2023/06/04 07:52:00;;;;;;;4.60;2.20;;;21.30;99.90;;;;;;5012052;28;20233;-59
2023/06/04 07:54:26;;;;;;;6.83;2.03;;;21.50;99.90;;;;;;5012251;28;20432;-59
2023/06/04 07:56:55;;;;;;;6.73;2.23;;;21.80;99.90;;;;;;5011624;28;20210;-59
2023/06/04 07:59:22;;;;;;;10.73;2.67;;;22.00;99.90;;;;;;5012310;28;20210;-59
2023/06/04 08:01:49;;;;;;;12.67;3.30;;;22.10;99.90;;;;;;5015421;28;20415;-58
2023/06/04 08:04:15;;;;;;;5.03;2.87;;;22.20;99.90;;;;;;5015022;28;20427;-59
2023/06/04 08:06:42;;;;;;;6.27;2.20;;;22.40;99.90;;;;;;5015207;28;20416;-57
2023/06/04 08:09:09;;;;;;;4.77;2.13;;;22.60;99.90;;;;;;5015133;28;20472;-57
2023/06/04 08:11:35;;;;;;;5.27;2.07;;;22.90;99.90;;;;;;5015094;28;20439;-55
2023/06/04 08:14:01;;;;;;;5.60;2.37;;;22.90;99.90;;;;;;5015358;28;20412;-56
2023/06/04 08:16:26;;;;;;;3.53;2.23;;;22.80;99.90;;;;;;5015106;28;20466;-59
2023/06/04 08:18:52;;;;;;;8.40;2.07;;;22.80;99.90;;;;;;5014735;28;20275;-57
2023/06/04 08:21:26;;;;;;;5.87;2.17;;;23.10;99.90;;;;;;5014908;28;20186;-58
2023/06/04 08:23:51;;;;;;;3.47;1.80;;;23.10;99.90;;;;;;5014929;28;20296;-57
2023/06/04 08:26:19;;;;;;;4.37;2.10;;;23.30;99.90;;;;;;5014736;28;20510;-57
2023/06/04 08:28:47;;;;;;;3.60;1.93;;;23.40;99.90;;;;;;5014861;28;20214;-57
2023/06/04 08:31:13;;;;;;;7.57;1.90;;;23.60;99.90;;;;;;5014739;28;20841;-57
2023/06/04 08:33:38;;;;;;;4.60;1.60;;;23.40;99.90;;;;;;5014774;28;20442;-58
2023/06/04 08:36:04;;;;;;;4.80;2.10;;;23.30;99.90;;;;;;5014849;28;20647;-58
2023/06/04 08:38:30;;;;;;;5.77;2.00;;;23.60;99.90;;;;;;5014913;28;20241;-58
2023/06/04 08:41:03;;;;;;;5.10;2.07;;;23.80;99.90;;;;;;5014651;28;20900;-58
2023/06/04 08:43:31;;;;;;;3.70;2.00;;;23.70;99.90;;;;;;5014303;28;20205;-58
2023/06/04 08:46:06;;;;;;;3.60;1.93;;;23.60;99.90;;;;;;5013251;28;20457;-58
2023/06/04 08:48:32;;;;;;;6.17;2.00;;;23.80;99.90;;;;;;5014907;28;20422;-58
2023/06/04 08:50:59;;;;;;;5.33;1.93;;;23.70;99.90;;;;;;5014423;28;20431;-58
2023/06/04 08:53:25;;;;;;;2.53;1.70;;;24.10;99.90;;;;;;5014153;28;20481;-57
2023/06/04 08:55:53;;;;;;;4.90;1.60;;;24.60;99.90;;;;;;5014361;28;20476;-58
2023/06/04 08:58:19;;;;;;;2.83;1.63;;;24.90;99.90;;;;;;5014246;28;20190;-57
2023/06/04 09:00:45;;;;;;;2.20;2.00;;;25.20;99.90;;;;;;5013877;28;20418;-58
2023/06/04 09:03:14;;;;;;;5.60;1.93;;;25.30;99.90;;;;;;5013977;28;20465;-57
2023/06/04 09:05:42;;;;;;;2.47;1.77;;;24.90;99.90;;;;;;5013785;28;20648;-57
2023/06/04 09:08:11;;;;;;;4.90;1.67;;;25.00;99.90;;;;;;5014034;28;20754;-57
2023/06/04 09:10:38;;;;;;;4.80;1.73;;;25.10;99.90;;;;;;5013719;28;20425;-56
2023/06/04 09:13:06;;;;;;;3.40;1.40;;;25.30;99.90;;;;;;5013984;28;20427;-57
2023/06/04 09:15:31;;;;;;;2.40;1.30;;;25.30;99.90;;;;;;5014085;28;20415;-57
2023/06/04 09:17:57;;;;;;;3.27;1.80;;;25.40;99.90;;;;;;5013661;28;20434;-57
2023/06/04 09:20:24;;;;;;;1.90;1.60;;;25.40;99.90;;;;;;5013671;28;20188;-57
2023/06/04 09:22:50;;;;;;;3.13;1.70;;;25.40;99.90;;;;;;5013862;28;20219;-57
2023/06/04 09:25:26;;;;;;;5.10;1.80;;;25.50;99.90;;;;;;5013719;28;20414;-57
2023/06/04 09:27:57;;;;;;;2.00;1.60;;;25.40;99.90;;;;;;5013435;28;20906;-58
2023/06/04 09:30:23;;;;;;;1.67;1.50;;;25.30;99.90;;;;;;5013247;28;20425;-58
2023/06/04 09:32:49;;;;;;;2.07;1.70;;;25.40;99.90;;;;;;5013111;28;20418;-58
2023/06/04 09:35:19;;;;;;;1.90;1.50;;;25.40;99.90;;;;;;5013453;28;20532;-58
2023/06/04 09:37:55;;;;;;;2.83;1.50;;;25.60;99.90;;;;;;5012938;28;20187;-58
2023/06/04 09:40:21;;;;;;;3.63;1.57;;;25.50;99.90;;;;;;5012486;28;20905;-58
2023/06/04 09:42:54;;;;;;;3.60;1.83;;;25.80;99.90;;;;;;5012694;28;20827;-58
2023/06/04 09:45:29;;;;;;;3.87;1.60;;;26.20;99.90;;;;;;5012577;28;20486;-58
2023/06/04 09:47:55;;;;;;;2.10;1.60;;;26.30;99.90;;;;;;5012172;28;20933;-57
2023/06/04 09:50:30;;;;;;;3.90;1.63;;;26.20;99.90;;;;;;5012164;28;20502;-57
2023/06/04 09:52:55;;;;;;;2.90;2.43;;;26.10;99.90;;;;;;5011886;28;20238;-56
2023/06/04 09:55:22;;;;;;;5.33;1.93;;;26.20;99.90;;;;;;5012294;28;20883;-57
2023/06/04 09:57:52;;;;;;;3.23;1.87;;;26.60;99.90;;;;;;5011924;28;20430;-57
2023/06/04 10:00:22;;;;;;;4.47;1.70;;;26.50;99.90;;;;;;5012095;28;20422;-56
2023/06/04 10:02:49;;;;;;;6.00;2.50;;;26.40;99.90;;;;;;5012133;28;20541;-57
2023/06/04 10:05:15;;;;;;;3.00;1.70;;;26.10;99.90;;;;;;5011805;28;20420;-58
2023/06/04 10:07:46;;;;;;;6.57;1.80;;;26.40;99.90;;;;;;5012189;28;20526;-57
2023/06/04 10:10:16;;;;;;;5.60;1.70;;;26.40;99.90;;;;;;5012228;28;20414;-57
2023/06/04 10:12:43;;;;;;;5.80;1.60;;;26.20;99.90;;;;;;5012669;28;20461;-57
2023/06/04 10:15:13;;;;;;;2.37;1.40;;;26.40;99.90;;;;;;5012827;28;20419;-57
2023/06/04 10:17:40;;;;;;;1.90;1.80;;;26.60;99.90;;;;;;5012842;28;20823;-57
2023/06/04 10:20:08;;;;;;;2.87;1.43;;;26.90;99.90;;;;;;5013026;28;20423;-57
2023/06/04 10:22:37;;;;;;;3.13;2.00;;;27.50;99.90;;;;;;5012507;28;20459;-57
2023/06/04 10:25:03;;;;;;;4.47;1.70;;;27.80;99.90;;;;;;5012959;28;20418;-57
2023/06/04 10:27:31;;;;;;;7.50;2.27;;;27.80;99.90;;;;;;5012552;28;20418;-55
2023/06/04 10:29:58;;;;;;;1.63;1.53;;;27.30;99.90;;;;;;5012445;28;20497;-55
2023/06/04 10:32:30;;;;;;;4.03;1.80;;;27.30;99.90;;;;;;5012405;28;20482;-56
2023/06/04 10:34:57;;;;;;;4.73;1.93;;;27.50;99.90;;;;;;5013185;28;20541;-56
2023/06/04 10:37:24;;;;;;;3.57;1.67;;;27.40;99.90;;;;;;5026783;28;20487;-56
2023/06/04 10:39:54;;;;;;;2.60;1.50;;;27.60;99.90;;;;;;5030645;28;20473;-56
2023/06/04 10:42:21;;;;;;;1.87;1.50;;;27.40;99.90;;;;;;5031580;28;20958;-56
2023/06/04 10:44:49;;;;;;;3.60;1.83;;;27.50;99.90;;;;;;5023409;28;20481;-56
2023/06/04 10:47:25;;;;;;;2.97;2.00;;;27.40;99.90;;;;;;5012196;28;20430;-57
2023/06/04 10:49:52;;;;;;;2.93;1.70;;;27.40;99.90;;;;;;5012088;28;20473;-56
2023/06/04 10:52:18;;;;;;;3.17;1.40;;;27.30;99.90;;;;;;5012207;28;20475;-56
2023/06/04 10:54:46;;;;;;;2.80;1.93;;;27.80;99.90;;;;;;5012159;28;20425;-56
2023/06/04 10:57:18;;;;;;;4.20;1.70;;;28.40;99.90;;;;;;5011703;28;20554;-56
2023/06/04 11:00:00;;;;;;;2.83;2.17;;;28.80;99.90;;;;;;5012116;28;20458;-55
2023/06/04 11:02:26;;;;;;;4.00;2.13;;;28.90;99.90;;;;;;5012128;28;20485;-56
2023/06/04 11:05:09;;;;;;;5.27;2.10;;;28.40;99.90;;;;;;5011779;28;20447;-56
2023/06/04 11:07:49;;;;;;;4.70;2.00;;;28.00;99.90;;;;;;5024938;28;20576;-56
2023/06/04 11:10:17;;;;;;;4.97;1.73;;;28.00;99.90;;;;;;5011600;28;20418;-56
2023/06/04 11:12:47;;;;;;;1.93;1.53;;;27.90;99.90;;;;;;5016178;28;20438;-56
2023/06/04 11:15:16;;;;;;;4.53;1.80;;;28.50;99.90;;;;;;5029455;28;20488;-56
2023/06/04 11:17:53;;;;;;;4.70;2.00;;;28.60;99.90;;;;;;5031610;28;20501;-55
2023/06/04 11:20:21;;;;;;;3.30;1.97;;;28.40;99.90;;;;;;5010931;28;20545;-55
2023/06/04 11:22:58;;;;;;;7.33;2.00;;;28.50;99.90;;;;;;5011029;28;20505;-56
2023/06/04 11:25:28;;;;;;;2.73;1.33;;;28.70;99.90;;;;;;5026242;28;20445;-56
2023/06/04 11:27:55;;;;;;;2.63;1.60;;;28.80;99.90;;;;;;5031468;28;20407;-56
2023/06/04 11:30:21;;;;;;;4.00;1.63;;;28.90;99.90;;;;;;5031576;28;20483;-55
2023/06/04 11:32:47;;;;;;;5.77;1.60;;;28.50;99.90;;;;;;5031452;28;20432;-56
2023/06/04 11:35:13;;;;;;;2.47;1.50;;;28.40;99.90;;;;;;5026362;28;20801;-56
2023/06/04 11:37:39;;;;;;;4.53;2.03;;;28.60;99.90;;;;;;5033429;28;20192;-56
2023/06/04 11:40:18;;;;;;;4.83;1.73;;;29.10;99.90;;;;;;5035491;28;20701;-56
2023/06/04 11:42:45;;;;;;;4.23;1.60;;;29.30;99.90;;;;;;5033434;28;20468;-55
2023/06/04 11:45:14;;;;;;;3.00;1.30;;;29.30;99.90;;;;;;5014477;28;20431;-56
2023/06/04 11:47:41;;;;;;;2.50;1.50;;;29.30;99.90;;;;;;5015428;28;20415;-55
2023/06/04 11:50:08;;;;;;;4.27;1.57;;;29.00;99.90;;;;;;5015759;28;20423;-55
2023/06/04 11:52:33;;;;;;;4.57;2.00;;;29.20;99.90;;;;;;5014993;28;20474;-57
2023/06/04 11:55:00;;;;;;;7.13;1.97;;;29.40;99.90;;;;;;5022999;28;20496;-57
2023/06/04 11:57:25;;;;;;;3.70;1.60;;;29.40;99.90;;;;;;5034969;28;20186;-57
2023/06/04 11:59:51;;;;;;;4.63;1.87;;;29.00;99.90;;;;;;5018906;28;20772;-57
2023/06/04 12:02:18;;;;;;;2.30;1.50;;;29.10;99.90;;;;;;5014578;28;20226;-57
2023/06/04 12:04:45;;;;;;;2.63;1.70;;;29.10;99.90;;;;;;5024810;28;20215;-57
2023/06/04 12:07:11;;;;;;;2.63;1.60;;;28.90;99.90;;;;;;5021121;28;20423;-57
2023/06/04 12:09:39;;;;;;;3.33;1.77;;;29.00;99.90;;;;;;5015198;28;20569;-57
2023/06/04 12:12:07;;;;;;;2.00;1.50;;;29.50;99.90;;;;;;5016609;28;20438;-57
2023/06/04 12:14:33;;;;;;;4.37;2.07;;;29.50;99.90;;;;;;5026034;28;20430;-56
2023/06/04 12:17:00;;;;;;;3.00;1.80;;;29.80;99.90;;;;;;5017734;28;20434;-57
2023/06/04 12:19:27;;;;;;;1.80;1.50;;;29.30;99.90;;;;;;5012613;28;20462;-57
2023/06/04 12:22:06;;;;;;;3.70;2.03;;;29.20;99.90;;;;;;5014634;28;20434;-57
2023/06/04 12:24:37;;;;;;;1.50;1.40;;;29.00;99.90;;;;;;5014647;28;20418;-57
2023/06/04 12:27:03;;;;;;;4.43;1.53;;;29.00;99.90;;;;;;5014711;28;20415;-57
2023/06/04 12:29:29;;;;;;;3.97;1.80;;;29.10;99.90;;;;;;5012811;28;20434;-57
2023/06/04 12:32:03;;;;;;;6.07;1.83;;;29.10;99.90;;;;;;5014788;28;20408;-56
2023/06/04 12:34:29;;;;;;;3.63;2.00;;;29.30;99.90;;;;;;4995040;28;20520;-57
2023/06/04 12:36:55;;;;;;;3.07;1.70;;;29.10;99.90;;;;;;4998224;28;20423;-57
2023/06/04 12:39:20;;;;;;;4.50;2.90;;;29.20;99.90;;;;;;5014419;28;20188;-57
2023/06/04 12:41:46;;;;;;;2.23;1.80;;;29.60;99.90;;;;;;5013994;28;20189;-57
2023/06/04 12:44:12;;;;;;;2.30;1.60;;;29.80;99.90;;;;;;5014235;28;20668;-57
2023/06/04 12:46:37;;;;;;;2.70;1.90;;;29.10;99.90;;;;;;5014306;28;20450;-58
2023/06/04 12:49:03;;;;;;;2.03;1.80;;;29.10;99.90;;;;;;5014357;28;20180;-57
2023/06/04 12:51:28;;;;;;;3.13;1.90;;;29.50;99.90;;;;;;5014136;28;20236;-57